sensor_id;sensor_type;location;lat;lon;timestamp;temperature;humidity
65207;SHT31;58477;48.072;11.970;2023-07-30T00:00:41;17.62;89.71
65207;SHT31;58477;48.072;11.970;2023-07-30T00:03:06;17.61;89.73
65207;SHT31;58477;48.072;11.970;2023-07-30T00:05:31;17.62;90.47
65207;SHT31;58477;48.072;11.970;2023-07-30T00:07:57;17.61;90.45
65207;SHT31;58477;48.072;11.970;2023-07-30T00:10:22;17.65;90.81
65207;SHT31;58477;48.072;11.970;2023-07-30T00:12:48;17.58;91.02
65207;SHT31;58477;48.072;11.970;2023-07-30T00:15:13;17.49;91.40
65207;SHT31;58477;48.072;11.970;2023-07-30T00:17:39;17.39;91.78
65207;SHT31;58477;48.072;11.970;2023-07-30T00:20:07;17.31;92.29
65207;SHT31;58477;48.072;11.970;2023-07-30T00:22:33;17.17;93.56
65207;SHT31;58477;48.072;11.970;2023-07-30T00:24:58;17.15;92.59
65207;SHT31;58477;48.072;11.970;2023-07-30T00:27:24;17.15;92.45
65207;SHT31;58477;48.072;11.970;2023-07-30T00:29:49;17.10;93.87
65207;SHT31;58477;48.072;11.970;2023-07-30T00:32:16;17.13;93.14
65207;SHT31;58477;48.072;11.970;2023-07-30T00:34:42;17.15;92.82
65207;SHT31;58477;48.072;11.970;2023-07-30T00:37:08;17.24;92.50
65207;SHT31;58477;48.072;11.970;2023-07-30T00:39:33;17.28;91.83
65207;SHT31;58477;48.072;11.970;2023-07-30T00:41:59;17.24;92.29
65207;SHT31;58477;48.072;11.970;2023-07-30T00:44:25;17.13;92.48
65207;SHT31;58477;48.072;11.970;2023-07-30T00:46:50;17.06;92.87
65207;SHT31;58477;48.072;11.970;2023-07-30T00:49:18;17.17;92.36
65207;SHT31;58477;48.072;11.970;2023-07-30T00:51:45;17.25;92.86
65207;SHT31;58477;48.072;11.970;2023-07-30T00:54:11;17.17;93.44
65207;SHT31;58477;48.072;11.970;2023-07-30T00:56:38;17.06;94.03
65207;SHT31;58477;48.072;11.970;2023-07-30T00:59:04;17.08;93.76
65207;SHT31;58477;48.072;11.970;2023-07-30T01:01:33;17.03;93.88
65207;SHT31;58477;48.072;11.970;2023-07-30T01:04:01;17.14;91.90
65207;SHT31;58477;48.072;11.970;2023-07-30T01:06:27;17.17;92.43
65207;SHT31;58477;48.072;11.970;2023-07-30T01:08:52;16.95;93.93
65207;SHT31;58477;48.072;11.970;2023-07-30T01:11:18;17.03;94.10
65207;SHT31;58477;48.072;11.970;2023-07-30T01:13:44;16.94;94.27
65207;SHT31;58477;48.072;11.970;2023-07-30T01:16:10;16.88;93.74
65207;SHT31;58477;48.072;11.970;2023-07-30T01:18:36;16.93;94.39
65207;SHT31;58477;48.072;11.970;2023-07-30T01:21:02;17.07;93.64
65207;SHT31;58477;48.072;11.970;2023-07-30T01:23:27;17.06;93.64
65207;SHT31;58477;48.072;11.970;2023-07-30T01:26:00;17.04;94.02
65207;SHT31;58477;48.072;11.970;2023-07-30T01:28:28;17.10;92.75
65207;SHT31;58477;48.072;11.970;2023-07-30T01:30:56;17.02;93.24
65207;SHT31;58477;48.072;11.970;2023-07-30T01:33:22;16.97;93.21
65207;SHT31;58477;48.072;11.970;2023-07-30T01:35:48;16.93;94.47
65207;SHT31;58477;48.072;11.970;2023-07-30T01:38:14;16.95;93.78
65207;SHT31;58477;48.072;11.970;2023-07-30T01:40:40;16.87;94.08
65207;SHT31;58477;48.072;11.970;2023-07-30T01:43:07;16.94;92.89
65207;SHT31;58477;48.072;11.970;2023-07-30T01:45:32;17.00;93.17
65207;SHT31;58477;48.072;11.970;2023-07-30T01:47:59;17.06;92.93
65207;SHT31;58477;48.072;11.970;2023-07-30T01:50:25;17.00;92.12
65207;SHT31;58477;48.072;11.970;2023-07-30T01:52:50;17.03;92.49
65207;SHT31;58477;48.072;11.970;2023-07-30T01:55:16;17.10;92.05
65207;SHT31;58477;48.072;11.970;2023-07-30T01:57:41;17.11;92.59
65207;SHT31;58477;48.072;11.970;2023-07-30T02:00:07;17.11;92.47
65207;SHT31;58477;48.072;11.970;2023-07-30T02:02:33;17.07;92.57
65207;SHT31;58477;48.072;11.970;2023-07-30T02:05:00;17.10;93.06
65207;SHT31;58477;48.072;11.970;2023-07-30T02:07:26;17.14;92.43
65207;SHT31;58477;48.072;11.970;2023-07-30T02:09:51;17.17;92.38
65207;SHT31;58477;48.072;11.970;2023-07-30T02:12:17;17.10;93.06
65207;SHT31;58477;48.072;11.970;2023-07-30T02:14:43;17.04;93.52
65207;SHT31;58477;48.072;11.970;2023-07-30T02:17:08;16.90;93.27
65207;SHT31;58477;48.072;11.970;2023-07-30T02:19:34;16.84;94.27
65207;SHT31;58477;48.072;11.970;2023-07-30T02:21:59;16.79;94.43
65207;SHT31;58477;48.072;11.970;2023-07-30T02:24:26;16.80;94.65
65207;SHT31;58477;48.072;11.970;2023-07-30T02:26:52;16.72;94.45
65207;SHT31;58477;48.072;11.970;2023-07-30T02:29:17;16.74;94.60
65207;SHT31;58477;48.072;11.970;2023-07-30T02:31:43;16.73;94.84
65207;SHT31;58477;48.072;11.970;2023-07-30T02:34:08;16.70;94.67
65207;SHT31;58477;48.072;11.970;2023-07-30T02:36:34;16.60;94.25
65207;SHT31;58477;48.072;11.970;2023-07-30T02:38:59;16.55;94.66
65207;SHT31;58477;48.072;11.970;2023-07-30T02:41:25;16.59;94.04
65207;SHT31;58477;48.072;11.970;2023-07-30T02:43:50;16.49;95.04
65207;SHT31;58477;48.072;11.970;2023-07-30T02:46:15;16.49;95.18
65207;SHT31;58477;48.072;11.970;2023-07-30T02:48:41;16.39;95.24
65207;SHT31;58477;48.072;11.970;2023-07-30T02:51:06;16.34;95.30
65207;SHT31;58477;48.072;11.970;2023-07-30T02:53:32;16.36;95.46
65207;SHT31;58477;48.072;11.970;2023-07-30T02:55:57;16.38;95.52
65207;SHT31;58477;48.072;11.970;2023-07-30T02:58:23;16.46;95.14
65207;SHT31;58477;48.072;11.970;2023-07-30T03:00:48;16.46;95.35
65207;SHT31;58477;48.072;11.970;2023-07-30T03:03:14;16.50;95.21
65207;SHT31;58477;48.072;11.970;2023-07-30T03:05:42;16.57;94.92
65207;SHT31;58477;48.072;11.970;2023-07-30T03:08:08;16.59;94.12
65207;SHT31;58477;48.072;11.970;2023-07-30T03:10:36;16.63;94.37
65207;SHT31;58477;48.072;11.970;2023-07-30T03:13:02;16.73;94.39
65207;SHT31;58477;48.072;11.970;2023-07-30T03:15:27;16.87;93.27
65207;SHT31;58477;48.072;11.970;2023-07-30T03:17:53;17.00;93.55
65207;SHT31;58477;48.072;11.970;2023-07-30T03:20:18;17.04;93.30
65207;SHT31;58477;48.072;11.970;2023-07-30T03:22:43;17.08;92.70
65207;SHT31;58477;48.072;11.970;2023-07-30T03:25:09;17.13;93.01
65207;SHT31;58477;48.072;11.970;2023-07-30T03:27:34;17.11;93.00
65207;SHT31;58477;48.072;11.970;2023-07-30T03:30:00;17.14;93.02
65207;SHT31;58477;48.072;11.970;2023-07-30T03:32:25;17.08;92.98
65207;SHT31;58477;48.072;11.970;2023-07-30T03:34:50;17.07;93.22
65207;SHT31;58477;48.072;11.970;2023-07-30T03:37:16;17.11;93.30
65207;SHT31;58477;48.072;11.970;2023-07-30T03:39:41;17.17;93.03
65207;SHT31;58477;48.072;11.970;2023-07-30T03:42:07;17.18;93.13
65207;SHT31;58477;48.072;11.970;2023-07-30T03:44:34;17.18;93.14
65207;SHT31;58477;48.072;11.970;2023-07-30T03:47:00;17.25;92.30
65207;SHT31;58477;48.072;11.970;2023-07-30T03:49:25;17.32;92.43
65207;SHT31;58477;48.072;11.970;2023-07-30T03:51:51;17.37;92.45
65207;SHT31;58477;48.072;11.970;2023-07-30T03:54:17;17.35;92.53
65207;SHT31;58477;48.072;11.970;2023-07-30T03:56:42;17.32;93.19
65207;SHT31;58477;48.072;11.970;2023-07-30T03:59:08;17.23;93.20
65207;SHT31;58477;48.072;11.970;2023-07-30T04:01:33;17.18;93.69
65207;SHT31;58477;48.072;11.970;2023-07-30T04:03:59;17.11;93.96
65207;SHT31;58477;48.072;11.970;2023-07-30T04:06:24;17.06;94.29
65207;SHT31;58477;48.072;11.970;2023-07-30T04:08:50;16.97;94.77
65207;SHT31;58477;48.072;11.970;2023-07-30T04:11:15;16.93;95.12
65207;SHT31;58477;48.072;11.970;2023-07-30T04:13:41;16.95;95.51
65207;SHT31;58477;48.072;11.970;2023-07-30T04:16:07;16.93;95.48
65207;SHT31;58477;48.072;11.970;2023-07-30T04:18:32;16.93;95.47
65207;SHT31;58477;48.072;11.970;2023-07-30T04:20:58;17.00;95.53
65207;SHT31;58477;48.072;11.970;2023-07-30T04:23:24;16.97;95.57
65207;SHT31;58477;48.072;11.970;2023-07-30T04:25:49;16.91;95.47
65207;SHT31;58477;48.072;11.970;2023-07-30T04:28:15;16.85;95.77
65207;SHT31;58477;48.072;11.970;2023-07-30T04:30:42;16.90;95.52
65207;SHT31;58477;48.072;11.970;2023-07-30T04:33:08;16.87;95.53
65207;SHT31;58477;48.072;11.970;2023-07-30T04:35:35;16.90;95.64
65207;SHT31;58477;48.072;11.970;2023-07-30T04:38:01;16.94;95.58
65207;SHT31;58477;48.072;11.970;2023-07-30T04:40:27;16.87;95.51
65207;SHT31;58477;48.072;11.970;2023-07-30T04:42:53;17.00;95.29
65207;SHT31;58477;48.072;11.970;2023-07-30T04:45:19;17.14;94.91
65207;SHT31;58477;48.072;11.970;2023-07-30T04:47:46;17.32;94.51
65207;SHT31;58477;48.072;11.970;2023-07-30T04:50:12;17.45;94.30
65207;SHT31;58477;48.072;11.970;2023-07-30T04:52:38;17.58;93.83
65207;SHT31;58477;48.072;11.970;2023-07-30T04:55:03;17.71;93.80
65207;SHT31;58477;48.072;11.970;2023-07-30T04:57:29;17.79;93.75
65207;SHT31;58477;48.072;11.970;2023-07-30T04:59:54;17.98;92.81
65207;SHT31;58477;48.072;11.970;2023-07-30T05:02:20;18.17;92.39
65207;SHT31;58477;48.072;11.970;2023-07-30T05:04:45;18.16;92.48
65207;SHT31;58477;48.072;11.970;2023-07-30T05:07:11;18.34;92.94
65207;SHT31;58477;48.072;11.970;2023-07-30T05:09:36;18.53;92.23
65207;SHT31;58477;48.072;11.970;2023-07-30T05:12:02;18.86;90.61
65207;SHT31;58477;48.072;11.970;2023-07-30T05:14:27;18.93;90.20
65207;SHT31;58477;48.072;11.970;2023-07-30T05:16:52;19.20;89.51
65207;SHT31;58477;48.072;11.970;2023-07-30T05:19:18;20.05;88.12
65207;SHT31;58477;48.072;11.970;2023-07-30T05:21:43;21.12;84.99
65207;SHT31;58477;48.072;11.970;2023-07-30T05:24:09;20.88;85.21
65207;SHT31;58477;48.072;11.970;2023-07-30T05:26:34;20.68;85.38
65207;SHT31;58477;48.072;11.970;2023-07-30T05:29:00;20.02;85.99
65207;SHT31;58477;48.072;11.970;2023-07-30T05:31:25;19.68;87.59
65207;SHT31;58477;48.072;11.970;2023-07-30T05:33:51;19.34;87.69
65207;SHT31;58477;48.072;11.970;2023-07-30T05:36:17;18.90;88.83
65207;SHT31;58477;48.072;11.970;2023-07-30T05:38:42;18.73;89.26
65207;SHT31;58477;48.072;11.970;2023-07-30T05:41:08;18.63;89.45
65207;SHT31;58477;48.072;11.970;2023-07-30T05:43:33;18.86;89.46
65207;SHT31;58477;48.072;11.970;2023-07-30T05:45:58;20.05;85.64
65207;SHT31;58477;48.072;11.970;2023-07-30T05:48:24;21.38;82.03
65207;SHT31;58477;48.072;11.970;2023-07-30T05:50:49;22.20;80.47
65207;SHT31;58477;48.072;11.970;2023-07-30T05:53:15;22.71;78.37
65207;SHT31;58477;48.072;11.970;2023-07-30T05:55:40;23.42;76.69
65207;SHT31;58477;48.072;11.970;2023-07-30T05:58:05;22.98;78.44
65207;SHT31;58477;48.072;11.970;2023-07-30T06:00:31;23.32;75.41
65207;SHT31;58477;48.072;11.970;2023-07-30T06:02:57;24.09;74.62
65207;SHT31;58477;48.072;11.970;2023-07-30T06:05:22;24.02;74.59
65207;SHT31;58477;48.072;11.970;2023-07-30T06:07:47;24.06;73.44
65207;SHT31;58477;48.072;11.970;2023-07-30T06:10:13;23.85;73.73
65207;SHT31;58477;48.072;11.970;2023-07-30T06:12:38;24.34;73.66
65207;SHT31;58477;48.072;11.970;2023-07-30T06:15:06;24.64;72.92
65207;SHT31;58477;48.072;11.970;2023-07-30T06:17:31;24.10;71.64
65207;SHT31;58477;48.072;11.970;2023-07-30T06:19:57;23.59;73.62
65207;SHT31;58477;48.072;11.970;2023-07-30T06:22:22;23.79;74.08
65207;SHT31;58477;48.072;11.970;2023-07-30T06:24:47;24.14;73.51
65207;SHT31;58477;48.072;11.970;2023-07-30T06:27:13;24.83;71.55
65207;SHT31;58477;48.072;11.970;2023-07-30T06:29:38;24.88;71.19
65207;SHT31;58477;48.072;11.970;2023-07-30T06:32:04;24.14;71.56
65207;SHT31;58477;48.072;11.970;2023-07-30T06:34:30;24.80;72.07
65207;SHT31;58477;48.072;11.970;2023-07-30T06:36:55;25.39;69.31
65207;SHT31;58477;48.072;11.970;2023-07-30T06:39:21;26.81;66.47
65207;SHT31;58477;48.072;11.970;2023-07-30T06:41:46;25.27;68.61
65207;SHT31;58477;48.072;11.970;2023-07-30T06:44:13;26.30;68.93
65207;SHT31;58477;48.072;11.970;2023-07-30T06:46:38;26.14;67.60
65207;SHT31;58477;48.072;11.970;2023-07-30T06:49:03;26.68;67.03
65207;SHT31;58477;48.072;11.970;2023-07-30T06:51:29;26.43;67.28
65207;SHT31;58477;48.072;11.970;2023-07-30T06:53:56;26.60;66.90
65207;SHT31;58477;48.072;11.970;2023-07-30T06:56:21;25.68;67.57
65207;SHT31;58477;48.072;11.970;2023-07-30T06:58:47;25.79;68.96
65207;SHT31;58477;48.072;11.970;2023-07-30T07:01:12;26.34;67.02
65207;SHT31;58477;48.072;11.970;2023-07-30T07:03:38;25.27;69.53
65207;SHT31;58477;48.072;11.970;2023-07-30T07:06:04;25.92;68.26
65207;SHT31;58477;48.072;11.970;2023-07-30T07:08:30;25.27;69.33
65207;SHT31;58477;48.072;11.970;2023-07-30T07:10:56;24.98;70.64
65207;SHT31;58477;48.072;11.970;2023-07-30T07:13:21;25.01;70.10
65207;SHT31;58477;48.072;11.970;2023-07-30T07:15:47;25.01;68.41
65207;SHT31;58477;48.072;11.970;2023-07-30T07:18:12;25.61;67.21
65207;SHT31;58477;48.072;11.970;2023-07-30T07:20:38;25.22;69.40
65207;SHT31;58477;48.072;11.970;2023-07-30T07:23:03;25.07;68.91
65207;SHT31;58477;48.072;11.970;2023-07-30T07:25:29;24.05;71.98
65207;SHT31;58477;48.072;11.970;2023-07-30T07:27:55;24.02;71.42
65207;SHT31;58477;48.072;11.970;2023-07-30T07:30:20;25.50;71.29
65207;SHT31;58477;48.072;11.970;2023-07-30T07:32:45;26.10;68.04
65207;SHT31;58477;48.072;11.970;2023-07-30T07:35:15;25.66;67.47
65207;SHT31;58477;48.072;11.970;2023-07-30T07:37:41;24.71;69.43
65207;SHT31;58477;48.072;11.970;2023-07-30T07:40:07;24.91;69.59
65207;SHT31;58477;48.072;11.970;2023-07-30T07:42:35;25.58;69.24
65207;SHT31;58477;48.072;11.970;2023-07-30T07:45:00;25.52;68.36
65207;SHT31;58477;48.072;11.970;2023-07-30T07:47:26;24.64;69.78
65207;SHT31;58477;48.072;11.970;2023-07-30T07:49:51;24.87;70.55
65207;SHT31;58477;48.072;11.970;2023-07-30T07:52:20;25.86;68.97
65207;SHT31;58477;48.072;11.970;2023-07-30T07:54:46;26.06;67.13
65207;SHT31;58477;48.072;11.970;2023-07-30T07:57:11;26.64;64.77
65207;SHT31;58477;48.072;11.970;2023-07-30T07:59:37;26.02;67.86
65207;SHT31;58477;48.072;11.970;2023-07-30T08:02:02;24.90;68.16
65207;SHT31;58477;48.072;11.970;2023-07-30T08:04:28;23.99;70.90
65207;SHT31;58477;48.072;11.970;2023-07-30T08:06:53;23.08;73.16
65207;SHT31;58477;48.072;11.970;2023-07-30T08:09:19;22.88;74.81
65207;SHT31;58477;48.072;11.970;2023-07-30T08:11:44;22.77;74.22
65207;SHT31;58477;48.072;11.970;2023-07-30T08:14:10;22.54;74.32
65207;SHT31;58477;48.072;11.970;2023-07-30T08:16:35;22.63;74.75
65207;SHT31;58477;48.072;11.970;2023-07-30T08:19:01;24.26;70.95
65207;SHT31;58477;48.072;11.970;2023-07-30T08:21:26;24.78;70.36
65207;SHT31;58477;48.072;11.970;2023-07-30T08:23:52;25.46;69.56
65207;SHT31;58477;48.072;11.970;2023-07-30T08:26:17;25.31;69.41
65207;SHT31;58477;48.072;11.970;2023-07-30T08:28:42;25.94;68.46
65207;SHT31;58477;48.072;11.970;2023-07-30T08:31:08;27.66;64.58
65207;SHT31;58477;48.072;11.970;2023-07-30T08:33:33;27.01;65.37
65207;SHT31;58477;48.072;11.970;2023-07-30T08:35:59;25.31;67.03
65207;SHT31;58477;48.072;11.970;2023-07-30T08:38:25;24.57;71.12
65207;SHT31;58477;48.072;11.970;2023-07-30T08:40:51;23.98;72.24
65207;SHT31;58477;48.072;11.970;2023-07-30T08:43:18;25.66;67.74
65207;SHT31;58477;48.072;11.970;2023-07-30T08:45:44;26.57;65.87
65207;SHT31;58477;48.072;11.970;2023-07-30T08:48:09;25.32;67.21
65207;SHT31;58477;48.072;11.970;2023-07-30T08:50:35;25.04;69.18
65207;SHT31;58477;48.072;11.970;2023-07-30T08:53:02;23.73;71.41
65207;SHT31;58477;48.072;11.970;2023-07-30T08:55:29;23.51;71.45
65207;SHT31;58477;48.072;11.970;2023-07-30T08:57:58;23.98;69.84
65207;SHT31;58477;48.072;11.970;2023-07-30T09:00:25;25.88;67.06
65207;SHT31;58477;48.072;11.970;2023-07-30T09:02:59;26.77;64.71
65207;SHT31;58477;48.072;11.970;2023-07-30T09:05:26;27.67;63.34
65207;SHT31;58477;48.072;11.970;2023-07-30T09:07:54;27.25;62.40
65207;SHT31;58477;48.072;11.970;2023-07-30T09:10:20;25.94;64.68
65207;SHT31;58477;48.072;11.970;2023-07-30T09:12:45;26.34;64.71
65207;SHT31;58477;48.072;11.970;2023-07-30T09:15:17;24.87;65.83
65207;SHT31;58477;48.072;11.970;2023-07-30T09:17:42;24.71;68.09
65207;SHT31;58477;48.072;11.970;2023-07-30T09:20:08;24.65;66.88
65207;SHT31;58477;48.072;11.970;2023-07-30T09:22:34;23.62;68.09
65207;SHT31;58477;48.072;11.970;2023-07-30T09:25:07;22.97;69.04
65207;SHT31;58477;48.072;11.970;2023-07-30T09:27:33;22.77;69.28
65207;SHT31;58477;48.072;11.970;2023-07-30T09:30:00;23.59;69.55
65207;SHT31;58477;48.072;11.970;2023-07-30T09:32:27;25.41;64.62
65207;SHT31;58477;48.072;11.970;2023-07-30T09:34:53;26.95;63.01
65207;SHT31;58477;48.072;11.970;2023-07-30T09:37:18;26.74;63.18
65207;SHT31;58477;48.072;11.970;2023-07-30T09:39:47;27.45;61.99
65207;SHT31;58477;48.072;11.970;2023-07-30T09:42:13;26.29;61.54
65207;SHT31;58477;48.072;11.970;2023-07-30T09:44:38;25.75;63.98
65207;SHT31;58477;48.072;11.970;2023-07-30T09:47:05;26.34;65.58
65207;SHT31;58477;48.072;11.970;2023-07-30T09:49:35;27.11;61.66
65207;SHT31;58477;48.072;11.970;2023-07-30T09:52:03;27.85;61.56
65207;SHT31;58477;48.072;11.970;2023-07-30T09:54:29;27.45;61.46
65207;SHT31;58477;48.072;11.970;2023-07-30T09:56:54;28.13;60.06
65207;SHT31;58477;48.072;11.970;2023-07-30T09:59:20;27.43;59.29
65207;SHT31;58477;48.072;11.970;2023-07-30T10:01:47;26.37;61.57
65207;SHT31;58477;48.072;11.970;2023-07-30T10:04:20;25.46;64.52
65207;SHT31;58477;48.072;11.970;2023-07-30T10:06:51;24.85;64.27
65207;SHT31;58477;48.072;11.970;2023-07-30T10:09:19;26.83;62.44
65207;SHT31;58477;48.072;11.970;2023-07-30T10:11:46;26.32;62.12
65207;SHT31;58477;48.072;11.970;2023-07-30T10:14:14;25.52;64.80
65207;SHT31;58477;48.072;11.970;2023-07-30T10:16:53;26.83;60.26
65207;SHT31;58477;48.072;11.970;2023-07-30T10:19:23;28.47;60.24
65207;SHT31;58477;48.072;11.970;2023-07-30T10:21:48;28.02;57.94
65207;SHT31;58477;48.072;11.970;2023-07-30T10:24:14;26.27;61.36
65207;SHT31;58477;48.072;11.970;2023-07-30T10:26:39;25.27;61.29
65207;SHT31;58477;48.072;11.970;2023-07-30T10:29:18;25.50;62.57
65207;SHT31;58477;48.072;11.970;2023-07-30T10:31:54;25.08;62.45
65207;SHT31;58477;48.072;11.970;2023-07-30T10:34:21;25.24;63.09
65207;SHT31;58477;48.072;11.970;2023-07-30T10:36:48;24.88;64.14
65207;SHT31;58477;48.072;11.970;2023-07-30T10:39:20;24.87;64.99
65207;SHT31;58477;48.072;11.970;2023-07-30T10:41:54;24.92;63.22
65207;SHT31;58477;48.072;11.970;2023-07-30T10:44:33;25.27;62.92
65207;SHT31;58477;48.072;11.970;2023-07-30T10:47:00;25.14;65.38
65207;SHT31;58477;48.072;11.970;2023-07-30T10:49:27;24.84;66.64
65207;SHT31;58477;48.072;11.970;2023-07-30T10:51:53;24.33;71.02
65207;SHT31;58477;48.072;11.970;2023-07-30T10:54:19;23.10;75.73
65207;SHT31;58477;48.072;11.970;2023-07-30T10:56:45;20.53;80.86
65207;SHT31;58477;48.072;11.970;2023-07-30T10:59:12;18.57;85.74
65207;SHT31;58477;48.072;11.970;2023-07-30T11:01:39;18.47;84.82
65207;SHT31;58477;48.072;11.970;2023-07-30T11:04:09;19.15;88.29
65207;SHT31;58477;48.072;11.970;2023-07-30T11:06:35;20.15;88.17
65207;SHT31;58477;48.072;11.970;2023-07-30T11:09:00;20.74;87.56
65207;SHT31;58477;48.072;11.970;2023-07-30T11:11:26;22.06;81.62
65207;SHT31;58477;48.072;11.970;2023-07-30T11:13:51;22.97;78.58
65207;SHT31;58477;48.072;11.970;2023-07-30T11:16:17;24.10;82.58
65207;SHT31;58477;48.072;11.970;2023-07-30T11:18:43;24.44;79.13
65207;SHT31;58477;48.072;11.970;2023-07-30T11:21:11;24.63;76.11
65207;SHT31;58477;48.072;11.970;2023-07-30T11:23:39;24.91;77.17
65207;SHT31;58477;48.072;11.970;2023-07-30T11:26:06;25.50;77.33
65207;SHT31;58477;48.072;11.970;2023-07-30T11:28:36;25.10;76.97
65207;SHT31;58477;48.072;11.970;2023-07-30T11:31:04;24.51;75.48
65207;SHT31;58477;48.072;11.970;2023-07-30T11:33:30;25.17;76.19
65207;SHT31;58477;48.072;11.970;2023-07-30T11:35:56;25.50;75.34
65207;SHT31;58477;48.072;11.970;2023-07-30T11:38:26;25.82;74.80
65207;SHT31;58477;48.072;11.970;2023-07-30T11:40:53;26.53;71.07
65207;SHT31;58477;48.072;11.970;2023-07-30T11:43:20;26.53;66.60
65207;SHT31;58477;48.072;11.970;2023-07-30T11:45:46;26.29;67.64
65207;SHT31;58477;48.072;11.970;2023-07-30T11:48:11;25.42;69.28
65207;SHT31;58477;48.072;11.970;2023-07-30T11:50:48;25.92;69.27
65207;SHT31;58477;48.072;11.970;2023-07-30T11:53:14;26.36;69.93
65207;SHT31;58477;48.072;11.970;2023-07-30T11:55:40;26.63;66.62
65207;SHT31;58477;48.072;11.970;2023-07-30T11:58:07;26.46;64.32
65207;SHT31;58477;48.072;11.970;2023-07-30T12:00:33;26.23;65.68
65207;SHT31;58477;48.072;11.970;2023-07-30T12:03:07;26.80;65.69
65207;SHT31;58477;48.072;11.970;2023-07-30T12:05:35;25.32;65.62
65207;SHT31;58477;48.072;11.970;2023-07-30T12:08:06;24.61;68.63
65207;SHT31;58477;48.072;11.970;2023-07-30T12:10:42;24.59;69.11
65207;SHT31;58477;48.072;11.970;2023-07-30T12:13:14;25.08;68.04
65207;SHT31;58477;48.072;11.970;2023-07-30T12:15:42;24.61;65.39
65207;SHT31;58477;48.072;11.970;2023-07-30T12:18:07;24.75;68.29
65207;SHT31;58477;48.072;11.970;2023-07-30T12:20:33;25.29;67.88
65207;SHT31;58477;48.072;11.970;2023-07-30T12:22:58;25.59;65.16
65207;SHT31;58477;48.072;11.970;2023-07-30T12:25:24;26.22;63.95
65207;SHT31;58477;48.072;11.970;2023-07-30T12:27:49;25.38;68.31
65207;SHT31;58477;48.072;11.970;2023-07-30T12:30:15;26.94;65.28
65207;SHT31;58477;48.072;11.970;2023-07-30T12:32:40;27.94;63.79
65207;SHT31;58477;48.072;11.970;2023-07-30T12:35:06;28.13;61.74
65207;SHT31;58477;48.072;11.970;2023-07-30T12:37:32;27.28;64.14
65207;SHT31;58477;48.072;11.970;2023-07-30T12:39:58;27.27;65.80
65207;SHT31;58477;48.072;11.970;2023-07-30T12:42:23;27.25;62.77
65207;SHT31;58477;48.072;11.970;2023-07-30T12:44:48;27.55;63.36
65207;SHT31;58477;48.072;11.970;2023-07-30T12:47:14;26.76;65.68
65207;SHT31;58477;48.072;11.970;2023-07-30T12:49:39;26.23;67.63
65207;SHT31;58477;48.072;11.970;2023-07-30T12:52:05;25.31;68.46
65207;SHT31;58477;48.072;11.970;2023-07-30T12:54:31;24.90;67.07
65207;SHT31;58477;48.072;11.970;2023-07-30T12:56:56;24.92;69.00
65207;SHT31;58477;48.072;11.970;2023-07-30T12:59:22;25.34;67.99
65207;SHT31;58477;48.072;11.970;2023-07-30T13:01:48;25.12;67.53
65207;SHT31;58477;48.072;11.970;2023-07-30T13:04:13;25.62;66.78
65207;SHT31;58477;48.072;11.970;2023-07-30T13:06:39;26.57;64.57
65207;SHT31;58477;48.072;11.970;2023-07-30T13:09:04;27.37;62.69
65207;SHT31;58477;48.072;11.970;2023-07-30T13:11:30;27.32;61.80
65207;SHT31;58477;48.072;11.970;2023-07-30T13:13:56;26.80;61.68
65207;SHT31;58477;48.072;11.970;2023-07-30T13:16:21;26.22;63.67
65207;SHT31;58477;48.072;11.970;2023-07-30T13:18:47;25.89;66.61
65207;SHT31;58477;48.072;11.970;2023-07-30T13:21:15;26.19;65.51
65207;SHT31;58477;48.072;11.970;2023-07-30T13:23:41;26.12;69.53
65207;SHT31;58477;48.072;11.970;2023-07-30T13:26:06;26.61;63.47
65207;SHT31;58477;48.072;11.970;2023-07-30T13:28:32;27.07;62.41
65207;SHT31;58477;48.072;11.970;2023-07-30T13:30:58;26.87;63.50
65207;SHT31;58477;48.072;11.970;2023-07-30T13:33:23;27.53;64.01
65207;SHT31;58477;48.072;11.970;2023-07-30T13:35:49;27.70;64.15
65207;SHT31;58477;48.072;11.970;2023-07-30T13:38:14;27.73;62.68
65207;SHT31;58477;48.072;11.970;2023-07-30T13:40:40;27.35;63.73
65207;SHT31;58477;48.072;11.970;2023-07-30T13:43:05;27.74;61.34
65207;SHT31;58477;48.072;11.970;2023-07-30T13:45:31;27.52;65.23
65207;SHT31;58477;48.072;11.970;2023-07-30T13:47:56;27.35;61.99
65207;SHT31;58477;48.072;11.970;2023-07-30T13:50:22;27.97;62.50
65207;SHT31;58477;48.072;11.970;2023-07-30T13:52:47;27.08;64.64
65207;SHT31;58477;48.072;11.970;2023-07-30T13:55:13;27.41;63.40
65207;SHT31;58477;48.072;11.970;2023-07-30T13:57:38;26.34;65.79
65207;SHT31;58477;48.072;11.970;2023-07-30T14:00:04;25.53;66.35
65207;SHT31;58477;48.072;11.970;2023-07-30T14:02:31;24.78;69.06
65207;SHT31;58477;48.072;11.970;2023-07-30T14:04:57;24.14;70.39
65207;SHT31;58477;48.072;11.970;2023-07-30T14:07:22;23.38;73.05
65207;SHT31;58477;48.072;11.970;2023-07-30T14:09:47;22.87;74.41
65207;SHT31;58477;48.072;11.970;2023-07-30T14:12:13;22.71;75.57
65207;SHT31;58477;48.072;11.970;2023-07-30T14:14:38;21.67;80.73
65207;SHT31;58477;48.072;11.970;2023-07-30T14:17:04;21.11;84.18
65207;SHT31;58477;48.072;11.970;2023-07-30T14:19:32;20.60;87.74
65207;SHT31;58477;48.072;11.970;2023-07-30T14:21:58;20.27;88.73
65207;SHT31;58477;48.072;11.970;2023-07-30T14:24:26;19.20;91.96
65207;SHT31;58477;48.072;11.970;2023-07-30T14:26:52;19.38;93.48
65207;SHT31;58477;48.072;11.970;2023-07-30T14:29:18;19.87;92.81
65207;SHT31;58477;48.072;11.970;2023-07-30T14:31:43;19.96;91.51
65207;SHT31;58477;48.072;11.970;2023-07-30T14:34:09;20.71;92.77
65207;SHT31;58477;48.072;11.970;2023-07-30T14:36:34;21.14;88.03
65207;SHT31;58477;48.072;11.970;2023-07-30T14:39:00;21.52;90.93
65207;SHT31;58477;48.072;11.970;2023-07-30T14:41:25;21.67;89.61
65207;SHT31;58477;48.072;11.970;2023-07-30T14:43:51;21.95;87.79
65207;SHT31;58477;48.072;11.970;2023-07-30T14:46:16;22.27;88.08
65207;SHT31;58477;48.072;11.970;2023-07-30T14:48:42;22.63;88.13
65207;SHT31;58477;48.072;11.970;2023-07-30T14:51:09;22.56;87.12
65207;SHT31;58477;48.072;11.970;2023-07-30T14:53:35;22.40;87.39
65207;SHT31;58477;48.072;11.970;2023-07-30T14:56:01;22.60;86.81
65207;SHT31;58477;48.072;11.970;2023-07-30T14:58:27;22.44;84.45
65207;SHT31;58477;48.072;11.970;2023-07-30T15:00:52;22.65;85.20
65207;SHT31;58477;48.072;11.970;2023-07-30T15:03:20;22.64;86.28
65207;SHT31;58477;48.072;11.970;2023-07-30T15:05:45;22.46;83.67
65207;SHT31;58477;48.072;11.970;2023-07-30T15:08:10;22.53;86.22